createdAt,value
2019-03-18T00:00:13.919Z,100383.00
2019-03-18T00:02:42.163Z,100377.14
2019-03-18T00:05:10.608Z,100375.56
2019-03-18T00:07:38.842Z,100373.42
2019-03-18T00:10:08.127Z,100380.14
2019-03-18T00:12:36.386Z,100382.81
2019-03-18T00:15:06.802Z,100384.94
2019-03-18T00:17:35.064Z,100388.94
2019-03-18T00:20:03.678Z,100401.54
2019-03-18T00:22:32.150Z,100401.54
2019-03-18T00:25:00.401Z,100398.30
2019-03-18T00:27:28.673Z,100399.33
2019-03-18T00:29:56.918Z,100402.51
2019-03-18T00:32:25.202Z,100402.51
2019-03-18T00:34:53.454Z,100404.67
2019-03-18T00:37:21.836Z,100404.67
2019-03-18T00:39:50.082Z,100407.08
2019-03-18T00:42:18.472Z,100415.12
2019-03-18T00:44:46.726Z,100417.24
2019-03-18T00:47:15.027Z,100411.38
2019-03-18T00:49:43.294Z,100417.04
2019-03-18T00:52:11.571Z,100404.44
2019-03-18T00:54:39.952Z,100409.77
2019-03-18T00:57:08.239Z,100414.09
2019-03-18T00:59:36.531Z,100407.95
2019-03-18T01:02:04.954Z,100398.00
2019-03-18T01:04:33.279Z,100411.12
2019-03-18T01:07:01.538Z,100421.34
2019-03-18T01:09:29.911Z,100429.14
2019-03-18T01:11:58.273Z,100424.28
2019-03-18T01:14:26.509Z,100428.06
2019-03-18T01:16:54.777Z,100437.17
2019-03-18T01:19:23.037Z,100438.24
2019-03-18T01:21:51.300Z,100435.53
2019-03-18T01:24:19.546Z,100424.50
2019-03-18T01:26:47.918Z,100428.80
2019-03-18T01:29:16.170Z,100440.89
2019-03-18T01:31:44.453Z,100434.72
2019-03-18T01:34:12.743Z,100440.37
2019-03-18T01:36:41.031Z,100434.72
2019-03-18T01:39:09.363Z,100435.84
2019-03-18T01:41:37.633Z,100432.09
2019-03-18T01:44:06.008Z,100438.53
2019-03-18T01:46:34.741Z,100448.73
2019-03-18T01:49:03.029Z,100452.78
2019-03-18T01:51:31.282Z,100444.50
2019-03-18T01:53:59.527Z,100453.03
2019-03-18T01:56:27.903Z,100460.04
2019-03-18T01:58:56.196Z,100460.04
2019-03-18T02:01:24.472Z,100460.82
2019-03-18T02:03:52.741Z,100469.11
2019-03-18T02:06:20.980Z,100472.35
2019-03-18T02:08:49.245Z,100467.21
2019-03-18T02:11:17.514Z,100490.56
2019-03-18T02:13:45.812Z,100490.56
2019-03-18T02:16:14.051Z,100486.23
2019-03-18T02:18:42.321Z,100483.81
2019-03-18T02:21:10.586Z,100489.98
2019-03-18T02:23:38.966Z,100494.02
2019-03-18T02:26:07.233Z,100496.41
2019-03-18T02:28:35.558Z,100489.44
2019-03-18T02:31:03.843Z,100511.20
2019-03-18T02:33:32.174Z,100525.45
2019-03-18T02:36:00.449Z,100539.40
2019-03-18T02:38:28.746Z,100533.53
2019-03-18T02:40:57.035Z,100542.09
2019-03-18T02:43:25.281Z,100524.66
2019-03-18T02:46:09.490Z,100511.24
2019-03-18T02:48:24.491Z,100501.88
2019-03-18T02:50:52.730Z,100505.37
2019-03-18T02:53:21.046Z,100516.11
2019-03-18T02:55:49.288Z,100522.06
2019-03-18T02:58:17.626Z,100522.34
2019-03-18T03:00:45.891Z,100522.34
2019-03-18T03:03:14.317Z,100519.41
2019-03-18T03:05:42.538Z,100527.17
2019-03-18T03:08:10.787Z,100520.48
2019-03-18T03:10:39.111Z,100520.48
2019-03-18T03:13:07.412Z,100521.30
2019-03-18T03:15:35.656Z,100525.85
2019-03-18T03:18:03.960Z,100529.37
2019-03-18T03:20:32.214Z,100532.05
2019-03-18T03:23:00.484Z,100535.81
2019-03-18T03:25:28.769Z,100531.78
2019-03-18T03:27:57.286Z,100528.55
2019-03-18T03:30:25.600Z,100537.43
2019-03-18T03:32:53.872Z,100542.53
2019-03-18T03:35:22.191Z,100542.53
2019-03-18T03:37:50.470Z,100542.25
2019-03-18T03:40:19.257Z,100542.25
2019-03-18T03:42:47.529Z,100547.38
2019-03-18T03:45:15.964Z,100542.52
2019-03-18T03:47:44.240Z,100546.83
2019-03-18T03:50:16.863Z,100559.69
2019-03-18T03:52:45.105Z,100559.18
2019-03-18T03:55:14.050Z,100566.16
2019-03-18T03:57:42.335Z,100571.77
2019-03-18T04:00:13.068Z,100575.00
2019-03-18T04:02:41.407Z,100588.70
2019-03-18T04:05:09.657Z,100589.77
2019-03-18T04:07:37.989Z,100593.52
2019-03-18T04:10:08.935Z,100593.52
2019-03-18T04:12:37.203Z,100600.77
2019-03-18T04:15:10.486Z,100605.31
2019-03-18T04:17:38.911Z,100600.23
2019-03-18T04:20:10.153Z,100605.59
2019-03-18T04:22:38.559Z,100607.77
2019-03-18T04:25:07.887Z,100610.45
2019-03-18T04:27:36.188Z,100613.95
2019-03-18T04:30:09.209Z,100619.32
2019-03-18T04:32:37.509Z,100620.91
2019-03-18T04:35:06.321Z,100618.25
2019-03-18T04:37:34.612Z,100621.18
2019-03-18T04:40:02.875Z,100624.14
2019-03-18T04:42:31.263Z,100627.37
2019-03-18T04:44:59.545Z,100629.77
2019-03-18T04:47:27.780Z,100627.91
2019-03-18T04:49:56.104Z,100639.16
2019-03-18T04:52:24.420Z,100648.03
2019-03-18T04:54:52.684Z,100640.77
2019-03-18T04:57:20.964Z,100647.47
2019-03-18T04:59:49.259Z,100659.53
2019-03-18T05:02:18.317Z,100671.33
2019-03-18T05:04:46.620Z,100669.98
2019-03-18T05:07:14.884Z,100662.48
2019-03-18T05:09:43.137Z,100664.63
2019-03-18T05:12:11.522Z,100658.74
2019-03-18T05:14:39.810Z,100662.22
2019-03-18T05:17:08.092Z,100660.09
2019-03-18T05:19:36.353Z,100672.67
2019-03-18T05:22:04.604Z,100672.94
2019-03-18T05:24:32.870Z,100678.58
2019-03-18T05:27:01.109Z,100689.30
2019-03-18T05:29:29.527Z,100688.75
2019-03-18T05:31:57.771Z,100694.66
2019-03-18T05:34:26.063Z,100701.08
2019-03-18T05:36:54.379Z,100705.09
2019-03-18T05:39:22.642Z,100701.89
2019-03-18T05:41:50.934Z,100703.23
2019-03-18T05:44:19.214Z,100716.90
2019-03-18T05:46:47.457Z,100715.83
2019-03-18T05:49:15.722Z,100721.74
2019-03-18T05:51:44.589Z,100729.00
2019-03-18T05:54:12.848Z,100733.82
2019-03-18T05:56:41.126Z,100735.44
2019-03-18T05:59:09.394Z,100743.73
2019-03-18T06:01:42.109Z,100745.62
2019-03-18T06:04:10.311Z,100750.18
2019-03-18T06:06:38.589Z,100758.20
2019-03-18T06:09:07.017Z,100760.89
2019-03-18T06:11:35.288Z,100757.14
2019-03-18T06:14:03.626Z,100766.25
2019-03-18T06:16:31.948Z,100776.43
2019-03-18T06:19:00.464Z,100774.05
2019-03-18T06:21:28.796Z,100773.77
2019-03-18T06:23:58.109Z,100774.84
2019-03-18T06:26:27.180Z,100784.23
2019-03-18T06:28:55.526Z,100784.80
2019-03-18T06:31:23.723Z,100795.78
2019-03-18T06:33:52.021Z,100801.73
2019-03-18T06:36:21.912Z,100811.11
2019-03-18T06:38:50.394Z,100807.10
2019-03-18T06:41:18.669Z,100811.14
2019-03-18T06:43:46.959Z,100816.78
2019-03-18T06:46:15.401Z,100825.09
2019-03-18T06:48:43.653Z,100835.83
2019-03-18T06:51:11.975Z,100835.56
2019-03-18T06:53:40.394Z,100835.56
2019-03-18T06:56:08.612Z,100832.88
2019-03-18T06:58:36.886Z,100843.62
2019-03-18T07:01:05.186Z,100841.48
2019-03-18T07:03:33.453Z,100842.80
2019-03-18T07:06:01.714Z,100848.44
2019-03-18T07:08:29.982Z,100852.74
2019-03-18T07:10:58.288Z,100854.08
2019-03-18T07:13:26.545Z,100856.23
2019-03-18T07:15:54.798Z,100859.47
2019-03-18T07:18:23.096Z,100864.84
2019-03-18T07:20:51.344Z,100862.97
2019-03-18T07:23:19.585Z,100866.73
2019-03-18T07:25:50.646Z,100869.70
2019-03-18T07:28:18.952Z,100880.70
2019-03-18T07:30:47.185Z,100887.94
2019-03-18T07:33:15.452Z,100893.08
2019-03-18T07:35:43.730Z,100899.77
2019-03-18T07:38:12.040Z,100905.42
2019-03-18T07:40:40.293Z,100907.29
2019-03-18T07:43:08.551Z,100904.87
2019-03-18T07:45:36.821Z,100914.52
2019-03-18T07:48:06.617Z,100919.11
2019-03-18T07:50:35.962Z,100919.38
2019-03-18T07:53:04.269Z,100921.52
2019-03-18T07:55:32.554Z,100925.53
2019-03-18T07:58:00.791Z,100927.15
2019-03-18T08:00:29.094Z,100935.70
2019-03-18T08:02:57.345Z,100935.70
2019-03-18T08:05:25.657Z,100943.20
2019-03-18T08:07:53.919Z,100939.39
2019-03-18T08:10:22.280Z,100939.39
2019-03-18T08:12:50.590Z,100955.70
2019-03-18T08:15:18.947Z,100955.70
2019-03-18T08:17:47.235Z,100959.16
2019-03-18T08:20:16.261Z,100960.75
2019-03-18T08:22:44.553Z,100969.02
2019-03-18T08:25:13.090Z,100960.59
2019-03-18T08:27:41.403Z,100960.27
2019-03-18T08:30:19.406Z,100970.44
2019-03-18T08:32:47.650Z,100980.88
2019-03-18T08:35:15.970Z,100988.39
2019-03-18T08:37:44.293Z,100992.39
2019-03-18T08:40:12.788Z,100986.63
2019-03-18T08:42:41.138Z,101000.58
2019-03-18T08:45:13.437Z,101005.16
2019-03-18T08:47:41.790Z,100995.91
2019-03-18T08:50:12.491Z,101000.66
2019-03-18T08:52:41.140Z,101006.83
2019-03-18T08:55:12.984Z,101007.84
2019-03-18T08:57:41.233Z,101010.25
2019-03-18T09:00:14.423Z,101008.61
2019-03-18T09:02:42.717Z,101005.36
2019-03-18T09:05:10.981Z,101013.97
2019-03-18T09:07:39.390Z,101030.93
2019-03-18T09:10:15.532Z,101032.00
2019-03-18T09:12:43.819Z,101034.92
2019-03-18T09:15:12.446Z,101047.05
2019-03-18T09:17:40.722Z,101052.95
2019-03-18T09:20:19.130Z,101054.33
2019-03-18T09:22:47.381Z,101051.10
2019-03-18T09:25:15.712Z,101058.09
2019-03-18T09:27:43.978Z,101066.14
2019-03-18T09:30:17.654Z,101063.16
2019-03-18T09:32:45.951Z,101082.77
2019-03-18T09:35:14.181Z,101082.30
2019-03-18T09:37:42.455Z,101086.58
2019-03-18T09:40:12.300Z,101089.98
2019-03-18T09:42:40.668Z,101096.97
2019-03-18T09:45:17.939Z,101107.44
2019-03-18T09:47:46.294Z,101107.22
2019-03-18T09:50:14.789Z,101119.91
2019-03-18T09:52:43.026Z,101103.44
2019-03-18T09:55:11.465Z,101110.50
2019-03-18T09:57:39.704Z,101113.73
2019-03-18T10:00:13.425Z,101098.34
2019-03-18T10:02:41.703Z,101104.49
2019-03-18T10:05:09.988Z,101114.72
2019-03-18T10:07:38.879Z,101114.84
2019-03-18T10:10:11.460Z,101119.98
2019-03-18T10:12:39.780Z,101131.95
2019-03-18T10:15:13.152Z,101125.99
2019-03-18T10:17:41.384Z,101137.37
2019-03-18T10:20:09.808Z,101148.55
2019-03-18T10:22:38.087Z,101166.08
2019-03-18T10:25:07.665Z,101182.08
2019-03-18T10:27:37.725Z,101208.52
2019-03-18T10:30:09.227Z,101208.09
2019-03-18T10:32:37.630Z,101215.91
2019-03-18T10:35:06.306Z,101208.48
2019-03-18T10:37:34.551Z,101217.67
2019-03-18T10:40:02.930Z,101224.68
2019-03-18T10:42:31.167Z,101236.23
2019-03-18T10:44:59.556Z,101242.30
2019-03-18T10:47:27.826Z,101242.44
2019-03-18T10:49:56.129Z,101226.30
2019-03-18T10:52:25.391Z,101226.30
2019-03-18T10:54:53.674Z,101208.48
2019-03-18T10:57:22.090Z,101208.48
2019-03-18T10:59:50.435Z,101208.81
2019-03-18T11:02:18.745Z,101208.25
2019-03-18T11:04:47.021Z,101205.52
2019-03-18T11:07:15.471Z,101195.78
2019-03-18T11:09:43.715Z,101199.23
2019-03-18T11:12:11.962Z,101199.23
2019-03-18T11:14:40.225Z,101206.05
2019-03-18T11:17:08.507Z,101212.59
2019-03-18T11:19:36.773Z,101209.66
2019-03-18T11:22:05.072Z,101210.70
2019-03-18T11:24:33.321Z,101220.89
2019-03-18T11:27:01.701Z,101232.85
2019-03-18T11:29:29.982Z,101235.38
2019-03-18T11:31:58.217Z,101236.00
2019-03-18T11:34:26.485Z,101237.59
2019-03-18T11:36:54.727Z,101237.84
2019-03-18T11:39:23.048Z,101242.41
2019-03-18T11:41:51.309Z,101236.83
2019-03-18T11:44:19.607Z,101240.67
2019-03-18T11:46:47.871Z,101249.30
2019-03-18T11:49:16.124Z,101248.55
2019-03-18T11:51:44.466Z,101253.66
2019-03-18T11:54:12.759Z,101246.63
2019-03-18T11:56:40.961Z,101260.56
2019-03-18T11:59:09.224Z,101258.36
2019-03-18T12:01:37.481Z,101248.27
2019-03-18T12:04:05.829Z,101253.84
2019-03-18T12:06:34.070Z,101257.06
2019-03-18T12:09:02.399Z,101262.65
2019-03-18T12:11:30.662Z,101272.56
2019-03-18T12:13:58.901Z,101269.45
2019-03-18T12:16:27.212Z,101282.77
2019-03-18T12:18:55.447Z,101278.34
2019-03-18T12:21:23.711Z,101271.36
2019-03-18T12:23:52.011Z,101270.91
2019-03-18T12:26:21.124Z,101271.83
2019-03-18T12:28:49.403Z,101267.69
2019-03-18T12:31:17.666Z,101274.39
2019-03-18T12:33:45.918Z,101270.78
2019-03-18T12:36:14.191Z,101276.53
2019-03-18T12:38:42.431Z,101309.88
2019-03-18T12:41:10.743Z,101302.69
2019-03-18T12:43:39.074Z,101310.36
2019-03-18T12:46:07.322Z,101313.03
2019-03-18T12:48:35.643Z,101305.84
2019-03-18T12:51:04.052Z,101302.56
2019-03-18T12:53:32.289Z,101290.61
2019-03-18T12:56:03.470Z,101300.30
2019-03-18T12:58:31.737Z,101294.58
2019-03-18T13:01:11.881Z,101292.75
2019-03-18T13:03:30.010Z,101296.91
2019-03-18T13:05:58.274Z,101302.34
2019-03-18T13:08:26.681Z,101310.92
2019-03-18T13:10:54.933Z,101315.73
2019-03-18T13:13:23.170Z,101319.93
2019-03-18T13:15:51.441Z,101332.95
2019-03-18T13:18:19.844Z,101330.04
2019-03-18T13:20:48.079Z,101328.20
2019-03-18T13:23:16.332Z,101340.26
2019-03-18T13:25:44.605Z,101351.06
2019-03-18T13:28:12.871Z,101340.16
2019-03-18T13:30:42.838Z,101340.75
2019-03-18T13:33:11.097Z,101341.02
2019-03-18T13:35:39.411Z,101352.68
2019-03-18T13:38:07.696Z,101366.89
2019-03-18T13:40:36.113Z,101372.67
2019-03-18T13:43:04.358Z,101372.66
2019-03-18T13:45:32.593Z,101370.11
2019-03-18T13:48:01.441Z,101367.30
2019-03-18T13:50:29.710Z,101366.70
2019-03-18T13:52:57.981Z,101368.83
2019-03-18T13:55:26.224Z,101371.94
2019-03-18T13:57:54.535Z,101373.70
2019-03-18T14:00:22.884Z,101378.29
2019-03-18T14:02:51.146Z,101383.63
2019-03-18T14:05:19.392Z,101383.63
2019-03-18T14:07:59.681Z,101381.08
2019-03-18T14:10:19.681Z,101386.14
2019-03-18T14:12:47.942Z,101391.12
2019-03-18T14:15:17.460Z,101394.55
2019-03-18T14:17:45.847Z,101388.55
2019-03-18T14:20:15.963Z,101387.23
2019-03-18T14:22:44.221Z,101395.41
2019-03-18T14:25:12.537Z,101395.28
2019-03-18T14:27:40.910Z,101404.73
2019-03-18T14:30:16.917Z,101401.72
2019-03-18T14:32:45.214Z,101397.23
2019-03-18T14:35:13.748Z,101402.27
2019-03-18T14:37:43.013Z,101415.44
2019-03-18T14:40:18.653Z,101412.13
2019-03-18T14:42:46.897Z,101425.98
2019-03-18T14:45:23.421Z,101418.45
2019-03-18T14:47:51.704Z,101418.11
2019-03-18T14:50:20.332Z,101412.79
2019-03-18T14:52:48.659Z,101430.39
2019-03-18T14:55:17.644Z,101426.01
2019-03-18T14:57:46.688Z,101429.55
2019-03-18T15:00:26.880Z,101428.22
2019-03-18T15:02:55.192Z,101427.17
2019-03-18T15:05:23.453Z,101425.83
2019-03-18T15:07:51.699Z,101430.09
2019-03-18T15:10:24.677Z,101432.68
2019-03-18T15:12:52.935Z,101446.20
2019-03-18T15:15:21.526Z,101451.89
2019-03-18T15:17:49.794Z,101447.88
2019-03-18T15:20:23.563Z,101447.41
2019-03-18T15:22:51.815Z,101448.53
2019-03-18T15:25:25.093Z,101451.30
2019-03-18T15:27:53.743Z,101464.76
2019-03-18T15:30:22.134Z,101463.78
2019-03-18T15:32:50.388Z,101460.04
2019-03-18T15:35:18.804Z,101468.20
2019-03-18T15:37:47.160Z,101463.61
2019-03-18T15:40:29.322Z,101473.66
2019-03-18T15:42:57.616Z,101481.49
2019-03-18T15:45:25.889Z,101476.38
2019-03-18T15:47:54.133Z,101480.16
2019-03-18T15:50:25.703Z,101488.01
2019-03-18T15:52:53.993Z,101493.46
2019-03-18T15:55:24.166Z,101507.02
2019-03-18T15:57:52.320Z,101510.01
2019-03-18T16:00:25.447Z,101511.64
2019-03-18T16:02:53.731Z,101509.23
2019-03-18T16:05:22.022Z,101517.31
2019-03-18T16:07:50.327Z,101524.90
2019-03-18T16:10:19.405Z,101527.27
2019-03-18T16:12:48.237Z,101525.12
2019-03-18T16:15:17.455Z,101529.16
2019-03-18T16:17:45.728Z,101529.68
2019-03-18T16:20:22.594Z,101527.53
2019-03-18T16:22:50.887Z,101526.98
2019-03-18T16:25:19.259Z,101537.28
2019-03-18T16:27:47.536Z,101545.66
2019-03-18T16:30:17.048Z,101548.64
2019-03-18T16:32:45.336Z,101549.45
2019-03-18T16:35:16.193Z,101553.78
2019-03-18T16:37:44.793Z,101558.90
2019-03-18T16:40:14.737Z,101557.82
2019-03-18T16:42:43.257Z,101559.72
2019-03-18T16:45:13.666Z,101565.65
2019-03-18T16:47:41.910Z,101565.41
2019-03-18T16:50:16.453Z,101577.56
2019-03-18T16:52:44.698Z,101584.03
2019-03-18T16:55:12.990Z,101582.40
2019-03-18T16:57:41.230Z,101588.59
2019-03-18T17:00:20.981Z,101596.97
2019-03-18T17:02:49.240Z,101600.48
2019-03-18T17:05:17.511Z,101609.13
2019-03-18T17:07:45.773Z,101617.45
2019-03-18T17:10:15.100Z,101625.55
2019-03-18T17:12:43.544Z,101620.71
2019-03-18T17:15:13.221Z,101628.25
2019-03-18T17:17:41.465Z,101628.02
2019-03-18T17:20:11.921Z,101628.78
2019-03-18T17:22:48.875Z,101636.05
2019-03-18T17:25:33.374Z,101636.05
2019-03-18T17:28:01.884Z,101634.15
2019-03-18T17:30:30.469Z,101657.64
2019-03-18T17:32:58.740Z,101647.36
2019-03-18T17:35:26.973Z,101652.70
2019-03-18T17:37:55.240Z,101650.55
2019-03-18T17:40:23.539Z,101657.83
2019-03-18T17:42:51.804Z,101663.20
2019-03-18T17:45:20.047Z,101661.85
2019-03-18T17:47:48.355Z,101668.30
2019-03-18T17:50:19.460Z,101678.80
2019-03-18T17:53:00.898Z,101671.74
2019-03-18T17:55:17.768Z,101680.87
2019-03-18T17:57:46.079Z,101680.56
2019-03-18T18:00:32.681Z,101683.78
2019-03-18T18:03:01.139Z,101686.98
2019-03-18T18:05:29.378Z,101687.73
2019-03-18T18:07:57.730Z,101692.57
2019-03-18T18:10:26.135Z,101696.89
2019-03-18T18:12:54.497Z,101698.73
2019-03-18T18:15:22.768Z,101708.39
2019-03-18T18:17:51.082Z,101704.59
2019-03-18T18:20:19.390Z,101717.27
2019-03-18T18:22:47.643Z,101722.07
2019-03-18T18:25:16.496Z,101727.16
2019-03-18T18:27:44.765Z,101726.32
2019-03-18T18:30:15.302Z,101732.52
2019-03-18T18:32:43.570Z,101742.22
2019-03-18T18:35:12.604Z,101739.53
2019-03-18T18:37:40.992Z,101737.86
2019-03-18T18:40:26.891Z,101748.86
2019-03-18T18:42:55.190Z,101746.69
2019-03-18T18:45:23.424Z,101756.34
2019-03-18T18:47:51.718Z,101751.50
2019-03-18T18:50:19.956Z,101756.33
2019-03-18T18:52:48.262Z,101761.16
2019-03-18T18:55:16.628Z,101769.76
2019-03-18T18:57:44.915Z,101767.02
2019-03-18T19:00:15.279Z,101766.16
2019-03-18T19:02:43.574Z,101777.41
2019-03-18T19:05:13.591Z,101772.78
2019-03-18T19:07:41.984Z,101783.77
2019-03-18T19:10:13.003Z,101794.22
2019-03-18T19:12:41.350Z,101794.73
2019-03-18T19:15:18.410Z,101790.66
2019-03-18T19:17:46.690Z,101802.97
2019-03-18T19:20:14.928Z,101802.97
2019-03-18T19:22:43.228Z,101796.50
2019-03-18T19:25:15.764Z,101804.80
2019-03-18T19:27:44.104Z,101804.80
2019-03-18T19:30:15.610Z,101802.91
2019-03-18T19:32:43.942Z,101807.38
2019-03-18T19:35:12.176Z,101807.61
2019-03-18T19:37:40.425Z,101812.48
2019-03-18T19:40:11.464Z,101814.05
2019-03-18T19:42:39.823Z,101812.78
2019-03-18T19:45:10.657Z,101812.78
2019-03-18T19:47:38.918Z,101815.47
2019-03-18T19:50:12.968Z,101818.16
2019-03-18T19:52:41.248Z,101825.14
2019-03-18T19:55:09.575Z,101830.41
2019-03-18T19:57:37.876Z,101819.55
2019-03-18T20:00:12.009Z,101828.41
2019-03-18T20:02:40.287Z,101834.97
2019-03-18T20:05:15.011Z,101834.97
2019-03-18T20:07:38.551Z,101848.04
2019-03-18T20:10:12.144Z,101848.04
2019-03-18T20:12:40.419Z,101846.36
2019-03-18T20:15:11.468Z,101841.53
2019-03-18T20:17:39.790Z,101851.02
2019-03-18T20:20:22.655Z,101852.91
2019-03-18T20:22:50.996Z,101852.91
2019-03-18T20:25:19.256Z,101861.81
2019-03-18T20:27:47.507Z,101863.61
2019-03-18T20:30:20.650Z,101863.61
2019-03-18T20:32:48.963Z,101861.87
2019-03-18T20:35:19.426Z,101873.28
2019-03-18T20:37:47.693Z,101873.28
2019-03-18T20:40:16.428Z,101875.16
2019-03-18T20:42:44.873Z,101878.55
2019-03-18T20:45:21.611Z,101878.55
2019-03-18T20:47:49.961Z,101873.92
2019-03-18T20:50:23.051Z,101885.47
2019-03-18T20:52:51.362Z,101894.91
2019-03-18T20:55:19.688Z,101893.02
2019-03-18T20:57:48.009Z,101890.13
2019-03-18T21:00:24.047Z,101883.88
2019-03-18T21:02:53.053Z,101880.94
2019-03-18T21:05:21.341Z,101875.17
2019-03-18T21:07:49.686Z,101885.52
2019-03-18T21:10:18.820Z,101885.52
2019-03-18T21:12:47.197Z,101892.43
2019-03-18T21:15:16.383Z,101892.43
2019-03-18T21:17:44.667Z,101898.34
2019-03-18T21:20:24.263Z,101903.16
2019-03-18T21:22:53.320Z,101907.39
2019-03-18T21:25:21.607Z,101910.56
2019-03-18T21:27:49.939Z,101908.58
2019-03-18T21:30:22.242Z,101908.58
2019-03-18T21:32:50.655Z,101912.74
2019-03-18T21:35:18.923Z,101915.63
2019-03-18T21:37:47.314Z,101917.45
2019-03-18T21:40:17.691Z,101926.55
2019-03-18T21:42:45.936Z,101924.30
2019-03-18T21:45:16.502Z,101920.75
2019-03-18T21:47:44.820Z,101927.16
2019-03-18T21:50:14.609Z,101932.48
2019-03-18T21:52:43.019Z,101935.40
2019-03-18T21:55:11.262Z,101949.56
2019-03-18T21:57:39.549Z,101948.94
2019-03-18T22:00:22.035Z,101951.63
2019-03-18T22:02:50.267Z,101958.27
2019-03-18T22:05:18.512Z,101956.88
2019-03-18T22:07:46.857Z,101963.82
2019-03-18T22:10:16.551Z,101957.86
2019-03-18T22:12:44.850Z,101966.95
2019-03-18T22:15:14.249Z,101967.48
2019-03-18T22:17:42.516Z,101966.39
2019-03-18T22:20:13.526Z,101961.02
2019-03-18T22:22:41.780Z,101969.58
2019-03-18T22:25:11.568Z,101966.33
2019-03-18T22:27:40.003Z,101963.34
2019-03-18T22:30:18.097Z,101968.42
2019-03-18T22:32:46.576Z,101967.55
2019-03-18T22:35:14.818Z,101975.54
2019-03-18T22:37:43.087Z,101982.78
2019-03-18T22:40:15.306Z,101987.84
2019-03-18T22:42:45.860Z,101984.80
2019-03-18T22:45:15.493Z,101988.77
2019-03-18T22:47:43.735Z,101985.52
2019-03-18T22:50:12.879Z,101982.78
2019-03-18T22:52:41.151Z,101980.84
2019-03-18T22:55:15.555Z,101991.00
2019-03-18T22:57:43.805Z,101991.20
2019-03-18T23:00:26.593Z,101992.28
2019-03-18T23:02:54.910Z,101988.76
2019-03-18T23:05:23.165Z,101986.49
2019-03-18T23:07:52.272Z,101990.75
2019-03-18T23:10:20.515Z,101992.03
2019-03-18T23:12:48.811Z,101986.67
2019-03-18T23:15:17.080Z,101992.83
2019-03-18T23:17:45.560Z,101991.60
2019-03-18T23:20:13.800Z,101991.03
2019-03-18T23:22:42.778Z,102005.23
2019-03-18T23:25:11.271Z,102010.03
2019-03-18T23:27:39.547Z,102006.01
2019-03-18T23:30:10.643Z,102011.64
2019-03-18T23:32:38.940Z,102004.37
2019-03-18T23:35:07.183Z,102002.67
2019-03-18T23:37:35.604Z,102007.45
2019-03-18T23:40:05.712Z,102010.34
2019-03-18T23:42:34.035Z,102004.98
2019-03-18T23:45:02.413Z,102012.15
2019-03-18T23:47:30.655Z,102013.42
2019-03-18T23:49:58.959Z,102012.38
2019-03-18T23:52:27.246Z,102007.50
2019-03-18T23:54:55.492Z,102012.02
2019-03-18T23:57:23.766Z,102012.55
2019-03-18T23:59:52.008Z,102013.59
